Airfield :
LOGIN :

Register | Disclaimer

   EN    FR    IT 

 










Legend :    VFR   Marginal VFR   IFR   Intensive IFR   Very Intensive IFR
Visi :
Ceiling :
>= 8 km
>= 3000ft
5 to 8 km
1000 to 3000 ft
1500m to 5 km
500 to 1000 ft
800 to 1500m
200 to 500 ft
< 800m
< 200 ft
Symbols :   Thunderstorms  Fog  Heavy snow  Heavy precipitations  Wind > 20 kt
SIGMETs :     Misc.  Thunderstorms  Icing  Turbulence  Mountain Waves  Volcanic Ashes






- Airport Elevation : 3381 ft
- IATA code : KYA


LTAN - Konya AB

CURRENT METAR :
  • 230114Z 31003KT 0200 R01/0250D R19/P1500N BCFG BKN002 M01/M01 Q1019 BECMG TL0200 FZFG

EXPIRED METARs :
  • 230050Z VRB01KT 2500 0900E R01/P1500N R19/P1500N BCFG BKN004 M01/M02 Q1019 BECMG TL0200 0300 FZFG VV002
  • 230037Z 27002KT 2200 0900E R01/P1500U R19/P1500N BCFG SCT002 M01/M01 Q1019 BECMG TL0200 0300 FZFG VV002 RMK RWY19 27003KT
  • 222350Z 00000KT 0200 R01/0200N R19/P1500N BCFG BKN002 M02/M02 Q1019 BECMG TL0030 FZFG
  • 222335Z 00000KT 0300 R01/0450D R19/P1500N BCFG BKN004 M02/M03 Q1019 BECMG FZFG VV002 RMK RWY19 31003KT
  • 222250Z 00000KT 3500 1200E R01/P1500N R19/P1500N BR NSC M01/M02 Q1019 BECMG TL2400 2000

TAF TAF LTAN
Valid from the 23 at 00:00 until the 23 at 09:00 UTC


222240Z 2300/2309 VRB02KT 2000 BR NSC
BECMG 2300/2302 0300 FZFG VV002
BECMG 2306/2308 3500 BR SCT010



MET'MAP, your aeronautical weather chart ! - Copyright ORBIFLY December 2007 - Disclaimer

ORBIFLY MET'MAP TEAM :

Programming & Development : Alexandra Zaïnal
Concept & Development : Baudouin d'Aumeries
Co-Development & Prog : Marc-Olivier Méhu
Technical & hardware support : Manuel Goepfert

Contact : metmap@orbifly.com




SOURCES & CREDITS :

   NOAA